createdAt,value
2022-12-28T00:01:48.156Z,29.55
2022-12-28T00:04:15.831Z,30.08
2022-12-28T00:06:43.240Z,32.10
2022-12-28T00:09:13.182Z,40.55
2022-12-28T00:11:40.564Z,35.10
2022-12-28T00:14:07.996Z,37.60
2022-12-28T00:16:39.740Z,35.15
2022-12-28T00:19:08.519Z,30.73
2022-12-28T00:21:35.803Z,31.08
2022-12-28T00:24:03.717Z,32.67
2022-12-28T00:26:32.237Z,29.02
2022-12-28T00:29:04.607Z,26.38
2022-12-28T00:31:32.678Z,32.15
2022-12-28T00:33:59.994Z,37.15
2022-12-28T00:37:09.756Z,30.83
2022-12-28T00:39:14.834Z,34.95
2022-12-28T00:41:44.513Z,32.95
2022-12-28T00:44:14.218Z,39.00
2022-12-28T00:46:42.392Z,38.05
2022-12-28T00:49:09.680Z,38.60
2022-12-28T00:51:36.946Z,33.65
2022-12-28T00:54:06.885Z,31.83
2022-12-28T00:56:34.370Z,29.67
2022-12-28T00:59:01.749Z,33.17
2022-12-28T01:01:29.714Z,29.77
2022-12-28T01:03:57.607Z,33.42
2022-12-28T01:06:25.910Z,37.35
2022-12-28T01:08:53.123Z,31.13
2022-12-28T01:11:32.116Z,35.58
2022-12-28T01:14:00.904Z,30.23
2022-12-28T01:16:29.787Z,32.70
2022-12-28T01:18:58.779Z,29.30
2022-12-28T01:21:32.484Z,30.67
2022-12-28T01:24:01.094Z,35.65
2022-12-28T01:26:28.896Z,29.63
2022-12-28T01:28:56.115Z,30.83
2022-12-28T01:31:24.048Z,33.35
2022-12-28T01:33:51.455Z,30.73
2022-12-28T01:36:20.187Z,34.03
2022-12-28T01:38:47.766Z,28.52
2022-12-28T01:41:16.236Z,28.25
2022-12-28T01:43:48.190Z,30.13
2022-12-28T01:46:20.411Z,31.13
2022-12-28T01:49:13.946Z,35.85
2022-12-28T01:51:45.408Z,38.83
2022-12-28T01:54:15.478Z,34.88
2022-12-28T01:56:44.040Z,33.10
2022-12-28T01:59:11.972Z,38.53
2022-12-28T02:01:39.769Z,35.58
2022-12-28T02:04:07.157Z,29.45
2022-12-28T02:06:34.531Z,31.35
2022-12-28T02:09:07.158Z,33.35
2022-12-28T02:11:34.416Z,33.88
2022-12-28T02:14:04.013Z,31.23
2022-12-28T02:16:31.246Z,31.48
2022-12-28T02:18:58.682Z,32.75
2022-12-28T02:21:42.399Z,34.92
2022-12-28T02:24:12.802Z,31.55
2022-12-28T02:26:44.306Z,29.80
2022-12-28T02:29:31.052Z,29.15
2022-12-28T02:32:01.599Z,27.10
2022-12-28T02:34:34.144Z,33.50
2022-12-28T02:37:06.647Z,34.20
2022-12-28T02:39:44.212Z,33.20
2022-12-28T02:42:12.456Z,36.40
2022-12-28T02:44:58.321Z,31.63
2022-12-28T02:47:44.497Z,34.85
2022-12-28T02:50:13.312Z,32.63
2022-12-28T02:53:03.691Z,35.90
2022-12-28T02:56:08.425Z,34.20
2022-12-28T02:58:36.374Z,36.10
2022-12-28T03:01:10.185Z,33.75
2022-12-28T03:04:03.853Z,38.15
2022-12-28T03:07:02.406Z,42.00
2022-12-28T03:09:37.016Z,35.83
2022-12-28T03:12:27.477Z,39.53
2022-12-28T03:14:57.499Z,37.22
2022-12-28T03:17:45.807Z,38.78
2022-12-28T03:20:36.080Z,39.55
2022-12-28T03:23:23.889Z,36.65
2022-12-28T03:26:10.964Z,46.42
2022-12-28T03:28:59.664Z,46.97
2022-12-28T03:31:29.130Z,43.85
2022-12-28T03:34:07.224Z,40.80
2022-12-28T03:36:54.728Z,41.83
2022-12-28T03:39:31.064Z,44.58
2022-12-28T03:42:40.513Z,43.65
2022-12-28T03:45:14.263Z,39.90
2022-12-28T03:48:06.397Z,41.67
2022-12-28T03:50:36.811Z,37.80
2022-12-28T03:53:04.375Z,43.55
2022-12-28T03:55:31.874Z,42.15
2022-12-28T03:58:01.693Z,40.97
2022-12-28T04:00:29.003Z,45.35
2022-12-28T04:02:56.492Z,41.78
2022-12-28T04:05:23.942Z,44.60
2022-12-28T04:07:53.041Z,38.65
2022-12-28T04:10:25.244Z,40.47
2022-12-28T04:12:56.928Z,39.60
2022-12-28T04:15:24.395Z,41.20
2022-12-28T04:17:51.740Z,41.28
2022-12-28T04:20:26.601Z,36.72
2022-12-28T04:22:54.133Z,39.03
2022-12-28T04:25:25.389Z,37.42
2022-12-28T04:27:57.761Z,44.53
2022-12-28T04:30:29.528Z,42.47
2022-12-28T04:32:57.046Z,40.83
2022-12-28T04:35:24.385Z,39.00
2022-12-28T04:37:59.354Z,43.58
2022-12-28T04:40:26.798Z,44.70
2022-12-28T04:42:59.656Z,39.35
2022-12-28T04:45:27.131Z,40.53
2022-12-28T04:48:06.717Z,41.97
2022-12-28T04:50:47.354Z,38.38
2022-12-28T04:55:50.712Z,37.72
2022-12-28T04:58:18.100Z,41.40
2022-12-28T05:00:45.525Z,34.97
2022-12-28T05:03:15.744Z,34.17
2022-12-28T05:05:45.700Z,38.45
2022-12-28T05:08:13.185Z,39.25
2022-12-28T05:10:42.981Z,38.58
2022-12-28T05:13:12.739Z,36.03
2022-12-28T05:15:42.388Z,44.13
2022-12-28T05:18:11.550Z,38.08
2022-12-28T05:20:42.263Z,38.08
2022-12-28T05:25:39.571Z,43.13
2022-12-28T05:28:08.606Z,38.22
2022-12-28T05:30:38.981Z,35.70
2022-12-28T05:33:07.702Z,36.30
2022-12-28T05:35:36.346Z,36.47
2022-12-28T05:38:03.813Z,39.22
2022-12-28T05:40:31.276Z,35.25
2022-12-28T05:43:00.801Z,41.22
2022-12-28T05:45:32.245Z,37.60
2022-12-28T05:48:00.704Z,38.70
2022-12-28T05:50:31.895Z,40.38
2022-12-28T05:53:01.794Z,38.17
2022-12-28T05:55:29.865Z,46.63
2022-12-28T05:58:00.552Z,42.97
2022-12-28T06:03:00.788Z,40.03
2022-12-28T06:05:34.978Z,37.53
2022-12-28T06:08:19.452Z,45.80
2022-12-28T06:10:51.383Z,37.83
2022-12-28T06:13:26.267Z,41.55
2022-12-28T06:15:55.269Z,48.47
2022-12-28T06:18:24.675Z,89.40
2022-12-28T06:20:57.333Z,115.10
2022-12-28T06:23:41.819Z,80.00
2022-12-28T06:26:09.472Z,60.88
2022-12-28T06:31:28.435Z,42.20
2022-12-28T06:34:01.003Z,49.15
2022-12-28T06:36:30.060Z,47.08
2022-12-28T06:39:00.707Z,42.38
2022-12-28T06:43:55.697Z,43.08
2022-12-28T06:46:32.345Z,44.45
2022-12-28T06:49:21.611Z,50.47
2022-12-28T06:52:09.843Z,50.13
2022-12-28T06:55:18.149Z,45.97
2022-12-28T06:58:10.182Z,45.72
2022-12-28T07:00:52.802Z,43.45
2022-12-28T09:47:06.063Z,22.63
2022-12-28T10:09:04.396Z,21.50
2022-12-28T10:11:11.273Z,20.60
2022-12-28T10:13:54.968Z,20.80
2022-12-28T10:17:02.934Z,22.83
2022-12-28T10:19:38.072Z,23.63
2022-12-28T10:22:14.811Z,18.67
2022-12-28T10:24:54.294Z,20.80
2022-12-28T10:27:26.053Z,20.10
2022-12-28T10:30:04.065Z,20.90
2022-12-28T10:33:51.868Z,20.08
2022-12-28T10:35:57.554Z,18.17
2022-12-28T10:38:31.004Z,19.77
2022-12-28T10:47:41.322Z,21.75
2022-12-28T10:50:35.955Z,24.35
2022-12-28T10:53:57.618Z,22.75
2022-12-28T10:56:19.093Z,19.25
2022-12-28T10:59:14.618Z,22.73
2022-12-28T11:04:38.397Z,20.90
2022-12-28T11:07:27.450Z,22.52
2022-12-28T11:10:22.400Z,21.55
2022-12-28T11:12:54.553Z,20.23
2022-12-28T11:18:33.247Z,18.67
2022-12-28T11:21:13.040Z,21.00
2022-12-28T11:23:57.880Z,26.50
2022-12-28T11:26:35.274Z,24.70
2022-12-28T11:29:03.113Z,24.95
2022-12-28T12:00:24.367Z,25.00
2022-12-28T12:03:07.894Z,33.80
2022-12-28T12:05:41.748Z,28.33
2022-12-28T12:08:33.493Z,26.75
2022-12-28T12:11:22.684Z,29.30
2022-12-28T12:13:52.686Z,25.80
2022-12-28T12:16:45.338Z,27.67
2022-12-28T12:22:18.220Z,26.95
2022-12-28T12:25:04.006Z,33.90
2022-12-28T12:27:46.838Z,23.27
2022-12-28T12:30:18.439Z,25.00
2022-12-28T12:32:47.067Z,25.58
2022-12-28T12:35:22.148Z,28.40
2022-12-28T12:38:35.816Z,26.35
2022-12-28T12:41:14.661Z,26.02
2022-12-28T12:44:04.842Z,26.08
2022-12-28T12:47:05.426Z,25.90
2022-12-28T12:49:39.295Z,23.20
2022-12-28T12:52:25.009Z,28.38
2022-12-28T12:55:18.242Z,22.63
2022-12-28T13:11:40.262Z,23.88
2022-12-28T13:14:50.187Z,29.17
2022-12-28T13:17:40.322Z,23.90
2022-12-28T13:21:01.832Z,25.00
2022-12-28T13:33:59.656Z,25.90
2022-12-28T13:37:08.300Z,24.40
2022-12-28T13:40:11.946Z,23.60
2022-12-28T13:42:48.680Z,27.98
2022-12-28T13:45:23.031Z,24.23
2022-12-28T13:47:52.078Z,24.63
2022-12-28T13:50:28.119Z,22.60
2022-12-28T13:53:05.968Z,22.30
2022-12-28T13:55:36.665Z,22.27
2022-12-28T14:00:34.494Z,22.63
2022-12-28T14:03:01.939Z,26.52
2022-12-28T14:05:35.124Z,27.40
2022-12-28T14:08:02.886Z,23.38
2022-12-28T14:10:31.465Z,26.30
2022-12-28T14:12:59.847Z,27.20
2022-12-28T14:15:27.909Z,25.48
2022-12-28T14:17:58.210Z,28.58
2022-12-28T14:20:28.250Z,32.92
2022-12-28T14:23:16.057Z,28.77
2022-12-28T14:25:43.722Z,27.48
2022-12-28T14:28:19.032Z,30.27
2022-12-28T14:30:52.094Z,32.17
2022-12-28T14:33:25.455Z,29.17
2022-12-28T14:35:58.822Z,29.98
2022-12-28T14:38:38.133Z,27.33
2022-12-28T14:44:01.601Z,30.40
2022-12-28T14:46:36.312Z,30.67
2022-12-28T14:49:22.243Z,23.67
2022-12-28T14:51:52.067Z,28.35
2022-12-28T14:54:26.044Z,27.40
2022-12-28T14:57:02.060Z,26.25
2022-12-28T14:59:29.590Z,28.77
2022-12-28T15:01:57.509Z,27.73
2022-12-28T15:04:25.992Z,29.77
2022-12-28T15:06:55.042Z,26.38
2022-12-28T15:09:22.706Z,27.67
2022-12-28T15:12:09.512Z,28.30
2022-12-28T15:14:37.725Z,27.95
2022-12-28T15:17:05.577Z,23.35
2022-12-28T15:19:42.906Z,27.20
2022-12-28T15:22:11.168Z,28.00
2022-12-28T15:24:41.754Z,28.85
2022-12-28T15:30:07.681Z,31.33
2022-12-28T15:32:24.043Z,26.67
2022-12-28T15:34:51.344Z,28.30
2022-12-28T15:37:18.584Z,37.90
2022-12-28T15:39:54.797Z,32.00
2022-12-28T15:42:28.359Z,26.90
2022-12-28T15:44:59.188Z,24.42
2022-12-28T15:47:26.677Z,30.23
2022-12-28T15:49:55.685Z,30.02
2022-12-28T15:52:23.116Z,29.73
2022-12-28T15:54:50.474Z,25.23
2022-12-28T15:57:18.062Z,27.52
2022-12-28T15:59:45.500Z,24.77
2022-12-28T16:02:13.244Z,25.55
2022-12-28T16:04:40.866Z,28.42
2022-12-28T16:07:08.215Z,26.63
2022-12-28T16:09:35.540Z,25.17
2022-12-28T16:12:03.138Z,26.80
2022-12-28T16:14:30.440Z,26.92
2022-12-28T16:16:57.947Z,28.55
2022-12-28T16:19:25.297Z,26.45
2022-12-28T16:21:52.661Z,25.65
2022-12-28T16:24:23.158Z,24.63
2022-12-28T16:26:52.662Z,24.52
2022-12-28T16:29:23.586Z,27.30
2022-12-28T16:31:52.958Z,25.58
2022-12-28T16:38:28.377Z,25.73
2022-12-28T16:41:19.188Z,22.88
2022-12-28T16:50:17.606Z,27.20
2022-12-28T16:52:44.874Z,25.90
2022-12-28T16:55:12.264Z,28.67
2022-12-28T16:57:39.513Z,23.73
2022-12-28T17:00:10.478Z,27.27
2022-12-28T17:02:37.928Z,26.70
2022-12-28T17:05:05.493Z,27.48
2022-12-28T17:07:33.087Z,27.52
2022-12-28T17:10:00.326Z,24.15
2022-12-28T17:12:44.267Z,25.45
2022-12-28T17:15:31.126Z,24.13
2022-12-28T17:23:47.341Z,21.25
2022-12-28T17:26:19.815Z,22.23
2022-12-28T17:29:22.539Z,23.25
2022-12-28T17:31:55.499Z,25.73
2022-12-28T17:34:35.403Z,22.58
2022-12-28T17:37:06.775Z,21.05
2022-12-28T17:39:56.434Z,19.05
2022-12-28T17:42:28.468Z,23.73
2022-12-28T17:48:05.866Z,19.67
2022-12-28T17:56:35.467Z,23.55
2022-12-28T18:01:47.688Z,23.58
2022-12-28T18:04:40.702Z,19.55
2022-12-28T18:07:11.733Z,21.80
2022-12-28T18:09:58.640Z,19.73
2022-12-28T18:12:47.961Z,21.38
2022-12-28T18:15:31.361Z,24.08
2022-12-28T18:18:03.117Z,19.17
2022-12-28T18:20:38.463Z,19.80
2022-12-28T18:23:09.443Z,21.33
2022-12-28T18:25:40.825Z,23.73
2022-12-28T18:28:13.266Z,22.80
2022-12-28T18:31:02.006Z,19.48
2022-12-28T18:33:40.676Z,21.00
2022-12-28T18:36:27.671Z,20.63
2022-12-28T18:39:13.502Z,23.73
2022-12-28T18:41:51.914Z,19.80
2022-12-28T18:44:32.291Z,23.83
2022-12-28T18:47:54.074Z,25.77
2022-12-28T18:50:00.388Z,23.88
2022-12-28T18:52:43.437Z,22.33
2022-12-28T18:55:44.020Z,25.67
2022-12-28T18:58:25.327Z,26.80
2022-12-28T19:03:44.729Z,24.08
2022-12-28T19:06:18.382Z,49.97
2022-12-28T19:08:55.251Z,52.30
2022-12-28T19:11:22.538Z,54.45
2022-12-28T19:13:49.940Z,57.05
2022-12-28T19:16:18.779Z,56.25
2022-12-28T19:18:48.701Z,37.00
2022-12-28T19:21:16.182Z,49.08
2022-12-28T19:23:43.842Z,50.50
2022-12-28T19:26:13.145Z,55.67
2022-12-28T19:28:45.695Z,66.10
2022-12-28T19:31:33.013Z,61.05
2022-12-28T19:34:09.231Z,60.97
2022-12-28T19:36:45.890Z,58.72
2022-12-28T19:39:30.440Z,57.05
2022-12-28T19:42:18.885Z,44.55
2022-12-28T19:44:48.805Z,50.75
2022-12-28T19:47:25.819Z,53.88
2022-12-28T19:50:02.930Z,48.58
2022-12-28T19:52:30.143Z,56.78
2022-12-28T19:54:57.516Z,54.13
2022-12-28T19:57:24.889Z,54.25
2022-12-28T19:59:52.495Z,52.33
2022-12-28T20:02:20.068Z,55.10
2022-12-28T20:05:01.640Z,55.00
2022-12-28T20:07:28.925Z,53.20
2022-12-28T20:10:04.917Z,58.40
2022-12-28T20:12:32.487Z,58.60
2022-12-28T20:18:50.959Z,60.70
2022-12-28T20:21:22.248Z,66.45
2022-12-28T20:23:50.359Z,64.95
2022-12-28T20:26:18.501Z,67.65
2022-12-28T20:28:46.633Z,67.30
2022-12-28T20:31:14.902Z,68.30
2022-12-28T20:33:43.432Z,71.13
2022-12-28T20:36:34.042Z,73.80
2022-12-28T20:41:48.893Z,82.75
2022-12-28T20:44:22.131Z,79.95
2022-12-28T20:46:49.609Z,84.63
2022-12-28T20:49:17.320Z,91.53
2022-12-28T20:51:46.803Z,90.25
2022-12-28T20:54:14.815Z,96.03
2022-12-28T20:56:42.576Z,99.72
2022-12-28T20:59:11.005Z,90.20
2022-12-28T21:01:38.973Z,93.57
2022-12-28T21:04:06.354Z,88.50
2022-12-28T21:06:36.357Z,91.18
2022-12-28T21:09:03.940Z,89.65
2022-12-28T21:11:33.139Z,86.15
2022-12-28T21:14:01.095Z,83.30
2022-12-28T21:16:30.696Z,89.10
2022-12-28T21:18:58.246Z,75.38
2022-12-28T21:21:25.960Z,77.72
2022-12-28T21:23:54.717Z,70.00
2022-12-28T21:26:23.946Z,68.10
2022-12-28T21:28:51.644Z,68.28
2022-12-28T21:31:19.433Z,59.67
2022-12-28T21:33:46.888Z,54.03
2022-12-28T21:36:21.390Z,64.18
2022-12-28T21:38:49.679Z,59.28
2022-12-28T21:41:38.650Z,57.63
2022-12-28T21:44:09.104Z,50.35
2022-12-28T21:46:36.591Z,73.35
2022-12-28T21:49:04.278Z,58.05
2022-12-28T21:51:31.957Z,55.13
2022-12-28T21:54:00.335Z,53.95
2022-12-28T21:56:28.138Z,60.35
2022-12-28T21:58:55.650Z,58.95
2022-12-28T22:01:41.919Z,54.35
2022-12-28T22:04:30.644Z,49.92
2022-12-28T22:06:59.143Z,56.45
2022-12-28T22:09:45.112Z,44.22
2022-12-28T22:12:31.862Z,55.00
2022-12-28T22:19:00.396Z,53.15
2022-12-28T22:21:30.425Z,49.65
2022-12-28T22:24:18.655Z,47.63
2022-12-28T22:27:11.283Z,47.13
2022-12-28T22:32:42.267Z,41.45
2022-12-28T22:35:19.818Z,46.97
2022-12-28T22:37:56.436Z,52.15
2022-12-28T22:40:38.286Z,49.03
2022-12-28T22:43:13.653Z,45.65
2022-12-28T22:45:46.507Z,47.65
2022-12-28T22:48:23.238Z,41.83
2022-12-28T22:52:27.941Z,47.58
2022-12-28T22:58:04.759Z,44.47
2022-12-28T23:00:46.344Z,45.15
2022-12-28T23:09:00.016Z,44.00
2022-12-28T23:11:42.512Z,38.88
2022-12-28T23:14:28.323Z,35.88
2022-12-28T23:16:55.960Z,38.08
2022-12-28T23:19:42.042Z,38.55
2022-12-28T23:22:31.067Z,34.35
2022-12-28T23:25:16.795Z,38.05
2022-12-28T23:27:44.860Z,38.60
2022-12-28T23:30:13.934Z,34.58
2022-12-28T23:32:41.238Z,31.60
2022-12-28T23:35:08.609Z,35.65
2022-12-28T23:37:35.879Z,36.22
2022-12-28T23:40:03.115Z,36.67
2022-12-28T23:42:30.301Z,36.70
2022-12-28T23:44:57.668Z,36.42
2022-12-28T23:47:24.964Z,42.53
2022-12-28T23:49:52.384Z,34.40
2022-12-28T23:52:25.505Z,36.47
2022-12-28T23:54:53.302Z,35.50
2022-12-28T23:57:21.090Z,33.95
2022-12-28T23:59:48.724Z,35.10
